createdAt,value
2019-03-11T00:00:32.977Z,91.60
2019-03-11T00:03:01.827Z,90.20
2019-03-11T00:05:30.661Z,86.70
2019-03-11T00:07:59.541Z,85.00
2019-03-11T00:10:28.338Z,84.20
2019-03-11T00:12:57.221Z,80.90
2019-03-11T00:15:26.047Z,82.80
2019-03-11T00:17:54.927Z,78.90
2019-03-11T00:20:23.738Z,79.50
2019-03-11T00:22:52.729Z,80.80
2019-03-11T00:25:21.646Z,81.10
2019-03-11T00:27:50.519Z,83.80
2019-03-11T00:30:19.412Z,82.10
2019-03-11T00:32:48.250Z,85.00
2019-03-11T00:35:17.068Z,85.00
2019-03-11T00:37:45.949Z,84.60
2019-03-11T00:40:17.725Z,85.20
2019-03-11T00:42:46.561Z,87.30
2019-03-11T00:45:16.181Z,83.30
2019-03-11T00:47:45.042Z,84.40
2019-03-11T00:50:14.058Z,85.10
2019-03-11T00:52:43.069Z,83.50
2019-03-11T00:55:13.210Z,87.30
2019-03-11T00:57:42.158Z,86.80
2019-03-11T01:00:34.325Z,85.20
2019-03-11T01:03:03.102Z,84.00
2019-03-11T01:05:31.963Z,84.90
2019-03-11T01:08:00.831Z,85.60
2019-03-11T01:10:29.684Z,85.20
2019-03-11T01:12:58.553Z,82.90
2019-03-11T01:15:27.349Z,83.30
2019-03-11T01:17:56.196Z,83.60
2019-03-11T01:20:25.000Z,84.30
2019-03-11T01:22:53.859Z,85.20
2019-03-11T01:25:22.743Z,89.00
2019-03-11T01:27:53.238Z,89.30
2019-03-11T01:30:22.045Z,84.20
2019-03-11T01:32:50.895Z,83.10
2019-03-11T01:35:19.741Z,85.10
2019-03-11T01:37:48.628Z,85.40
2019-03-11T01:40:18.433Z,84.70
2019-03-11T01:42:47.305Z,85.10
2019-03-11T01:45:17.859Z,82.80
2019-03-11T01:47:46.873Z,83.30
2019-03-11T01:50:15.781Z,82.20
2019-03-11T01:52:44.665Z,81.60
2019-03-11T01:55:14.499Z,82.90
2019-03-11T01:57:43.405Z,80.40
2019-03-11T02:00:15.289Z,81.40
2019-03-11T02:02:44.145Z,81.00
2019-03-11T02:05:13.036Z,81.30
2019-03-11T02:07:41.879Z,79.30
2019-03-11T02:10:13.451Z,78.90
2019-03-11T02:12:42.368Z,79.40
2019-03-11T02:15:17.282Z,78.80
2019-03-11T02:17:46.590Z,79.10
2019-03-11T02:20:16.656Z,79.50
2019-03-11T02:22:45.611Z,79.40
2019-03-11T02:25:14.853Z,77.00
2019-03-11T02:27:43.792Z,77.60
2019-03-11T02:30:17.114Z,77.80
2019-03-11T02:32:46.065Z,76.00
2019-03-11T02:35:20.660Z,76.80
2019-03-11T02:37:49.517Z,79.30
2019-03-11T02:40:18.408Z,77.00
2019-03-11T02:42:47.278Z,77.60
2019-03-11T02:45:16.121Z,77.30
2019-03-11T02:47:45.000Z,80.90
2019-03-11T02:50:13.841Z,79.80
2019-03-11T02:52:42.681Z,80.60
2019-03-11T02:55:11.686Z,79.20
2019-03-11T02:57:40.577Z,79.10
2019-03-11T03:00:15.955Z,78.90
2019-03-11T03:02:55.486Z,79.00
2019-03-11T03:05:25.916Z,80.00
2019-03-11T03:07:54.736Z,79.10
2019-03-11T03:10:23.601Z,80.70
2019-03-11T03:12:52.453Z,82.00
2019-03-11T03:15:21.277Z,83.00
2019-03-11T03:17:50.171Z,83.50
2019-03-11T03:20:18.959Z,81.10
2019-03-11T03:22:47.832Z,82.40
2019-03-11T03:25:16.632Z,84.10
2019-03-11T03:27:45.552Z,84.10
2019-03-11T03:30:18.839Z,83.70
2019-03-11T03:32:47.705Z,83.00
2019-03-11T03:35:16.568Z,81.20
2019-03-11T03:37:45.458Z,81.20
2019-03-11T03:40:15.823Z,76.80
2019-03-11T03:42:44.765Z,75.80
2019-03-11T03:45:24.373Z,75.80
2019-03-11T03:47:53.293Z,75.70
2019-03-11T03:50:33.869Z,76.80
2019-03-11T03:53:02.706Z,76.50
2019-03-11T03:55:31.553Z,77.20
2019-03-11T03:58:00.460Z,76.50
2019-03-11T04:00:29.291Z,75.00
2019-03-11T04:02:58.142Z,76.60
2019-03-11T04:05:26.951Z,76.40
2019-03-11T04:07:55.762Z,75.60
2019-03-11T04:10:24.677Z,75.10
2019-03-11T04:12:53.463Z,74.50
2019-03-11T04:15:22.383Z,74.20
2019-03-11T04:17:51.245Z,73.80
2019-03-11T04:20:21.819Z,75.10
2019-03-11T04:22:50.773Z,74.90
2019-03-11T04:25:19.628Z,76.10
2019-03-11T04:27:48.577Z,77.10
2019-03-11T04:30:25.121Z,76.30
2019-03-11T04:32:53.985Z,75.90
2019-03-11T04:35:22.876Z,76.20
2019-03-11T04:37:51.855Z,76.60
2019-03-11T04:40:20.644Z,74.80
2019-03-11T04:42:49.532Z,75.40
2019-03-11T04:45:18.662Z,76.40
2019-03-11T04:47:47.646Z,77.10
2019-03-11T04:50:17.442Z,78.10
2019-03-11T04:52:46.241Z,78.90
2019-03-11T04:55:16.539Z,78.90
2019-03-11T04:57:50.482Z,78.10
2019-03-11T05:00:21.755Z,77.20
2019-03-11T05:02:51.420Z,78.50
2019-03-11T05:05:20.233Z,78.00
2019-03-11T05:07:49.147Z,77.80
2019-03-11T05:10:17.952Z,78.70
2019-03-11T05:12:46.861Z,79.80
2019-03-11T05:15:15.692Z,80.00
2019-03-11T05:17:44.600Z,82.30
2019-03-11T05:20:17.280Z,82.10
2019-03-11T05:22:46.169Z,83.60
2019-03-11T05:25:15.827Z,83.00
2019-03-11T05:27:44.745Z,84.50
2019-03-11T05:30:20.676Z,83.70
2019-03-11T05:32:49.544Z,83.70
2019-03-11T05:35:18.358Z,81.70
2019-03-11T05:37:47.191Z,82.30
2019-03-11T05:40:18.031Z,82.00
2019-03-11T05:42:46.903Z,81.40
2019-03-11T05:45:17.602Z,80.60
2019-03-11T05:47:46.560Z,81.20
2019-03-11T05:50:19.052Z,80.80
2019-03-11T05:52:47.916Z,80.90
2019-03-11T05:55:17.115Z,80.30
2019-03-11T05:57:45.940Z,79.40
2019-03-11T06:00:26.196Z,79.80
2019-03-11T06:02:55.020Z,79.50
2019-03-11T06:05:23.854Z,80.00
2019-03-11T06:07:52.701Z,79.60
2019-03-11T06:10:21.552Z,80.20
2019-03-11T06:12:50.448Z,80.20
2019-03-11T06:15:19.220Z,80.80
2019-03-11T06:17:48.181Z,80.80
2019-03-11T06:20:25.543Z,82.20
2019-03-11T06:22:54.348Z,82.70
2019-03-11T06:25:23.238Z,83.20
2019-03-11T06:27:52.044Z,84.80
2019-03-11T06:30:20.873Z,84.20
2019-03-11T06:32:49.721Z,84.50
2019-03-11T06:35:18.545Z,85.00
2019-03-11T06:37:47.356Z,85.10
2019-03-11T06:40:16.223Z,87.20
2019-03-11T06:42:45.102Z,86.20
2019-03-11T06:45:15.020Z,86.30
2019-03-11T06:47:43.914Z,86.00
2019-03-11T06:50:13.952Z,85.90
2019-03-11T06:52:42.843Z,85.60
2019-03-11T06:55:12.628Z,86.10
2019-03-11T06:57:41.478Z,86.50
2019-03-11T07:00:15.653Z,86.30
2019-03-11T07:02:44.572Z,85.40
2019-03-11T07:05:19.811Z,83.50
2019-03-11T07:07:43.847Z,83.10
2019-03-11T07:10:16.453Z,82.70
2019-03-11T07:12:45.299Z,82.90
2019-03-11T07:15:15.696Z,84.20
2019-03-11T07:17:44.856Z,83.10
2019-03-11T07:20:18.923Z,83.10
2019-03-11T07:22:47.772Z,83.60
2019-03-11T07:25:16.613Z,82.20
2019-03-11T07:27:45.492Z,80.00
2019-03-11T07:30:16.407Z,79.20
2019-03-11T07:32:45.323Z,77.40
2019-03-11T07:35:14.266Z,77.40
2019-03-11T07:37:43.132Z,77.00
2019-03-11T07:40:16.261Z,77.80
2019-03-11T07:42:45.100Z,77.50
2019-03-11T07:45:15.155Z,73.30
2019-03-11T07:47:43.956Z,70.70
2019-03-11T07:50:14.842Z,69.30
2019-03-11T07:52:43.643Z,70.90
2019-03-11T07:55:14.068Z,69.10
2019-03-11T07:57:42.877Z,67.80
2019-03-11T08:00:14.685Z,66.90
2019-03-11T08:02:43.510Z,64.10
2019-03-11T08:05:12.457Z,64.00
2019-03-11T08:07:41.294Z,60.40
2019-03-11T08:10:24.082Z,61.50
2019-03-11T08:12:53.158Z,59.30
2019-03-11T08:15:22.014Z,57.50
2019-03-11T08:17:50.774Z,58.50
2019-03-11T08:20:19.638Z,56.20
2019-03-11T08:22:48.535Z,53.70
2019-03-11T08:25:25.897Z,55.10
2019-03-11T08:27:54.777Z,54.70
2019-03-11T08:30:23.723Z,54.50
2019-03-11T08:32:52.626Z,53.80
2019-03-11T08:35:21.468Z,51.20
2019-03-11T08:37:50.291Z,50.70
2019-03-11T08:40:20.288Z,50.40
2019-03-11T08:42:49.113Z,50.20
2019-03-11T08:45:18.845Z,48.30
2019-03-11T08:47:47.767Z,48.40
2019-03-11T08:50:16.963Z,47.40
2019-03-11T08:52:45.839Z,46.50
2019-03-11T08:55:14.843Z,46.20
2019-03-11T08:57:43.785Z,47.30
2019-03-11T09:00:20.240Z,47.90
2019-03-11T09:02:49.081Z,48.80
2019-03-11T09:05:17.922Z,47.60
2019-03-11T09:07:46.731Z,48.70
2019-03-11T09:10:17.459Z,48.60
2019-03-11T09:12:46.345Z,48.50
2019-03-11T09:15:17.335Z,48.90
2019-03-11T09:17:46.134Z,48.10
2019-03-11T09:20:16.296Z,47.80
2019-03-11T09:22:45.151Z,49.80
2019-03-11T09:25:16.431Z,49.10
2019-03-11T09:27:45.300Z,48.20
2019-03-11T09:30:16.636Z,49.10
2019-03-11T09:32:45.552Z,48.60
2019-03-11T09:35:14.413Z,47.60
2019-03-11T09:37:43.208Z,49.40
2019-03-11T09:40:14.621Z,49.40
2019-03-11T09:42:43.450Z,48.80
2019-03-11T09:45:15.075Z,48.30
2019-03-11T09:47:43.894Z,50.50
2019-03-11T09:50:18.844Z,48.70
2019-03-11T09:52:47.709Z,48.70
2019-03-11T09:55:24.776Z,48.30
2019-03-11T09:57:53.780Z,50.40
2019-03-11T10:00:30.485Z,49.80
2019-03-11T10:02:59.350Z,50.60
2019-03-11T10:05:28.237Z,50.20
2019-03-11T10:07:57.186Z,49.40
2019-03-11T10:10:27.880Z,50.70
2019-03-11T10:12:56.738Z,51.20
2019-03-11T10:15:25.662Z,51.40
2019-03-11T10:17:54.541Z,51.20
2019-03-11T10:20:23.416Z,50.90
2019-03-11T10:22:52.248Z,50.00
2019-03-11T10:25:21.639Z,49.10
2019-03-11T10:27:50.510Z,48.50
2019-03-11T10:30:25.123Z,47.70
2019-03-11T10:32:53.936Z,46.90
2019-03-11T10:35:38.116Z,46.60
2019-03-11T10:37:53.246Z,45.60
2019-03-11T10:40:26.272Z,44.60
2019-03-11T10:42:55.138Z,45.60
2019-03-11T10:45:31.214Z,44.80
2019-03-11T10:47:54.532Z,44.80
2019-03-11T10:50:23.503Z,45.90
2019-03-11T10:52:52.368Z,45.20
2019-03-11T10:55:25.096Z,45.60
2019-03-11T10:57:54.049Z,44.70
2019-03-11T11:00:28.138Z,44.00
2019-03-11T11:02:57.017Z,44.50
2019-03-11T11:05:25.848Z,44.00
2019-03-11T11:07:55.397Z,44.40
2019-03-11T11:10:24.310Z,43.50
2019-03-11T11:12:53.250Z,44.30
2019-03-11T11:15:25.084Z,45.10
2019-03-11T11:17:53.929Z,45.90
2019-03-11T11:20:23.793Z,45.80
2019-03-11T11:22:53.801Z,46.50
2019-03-11T11:25:24.040Z,47.10
2019-03-11T11:27:53.076Z,49.10
2019-03-11T11:30:24.640Z,49.50
2019-03-11T11:32:53.653Z,48.40
2019-03-11T11:35:22.488Z,46.30
2019-03-11T11:37:51.357Z,45.40
2019-03-11T11:40:24.684Z,45.70
2019-03-11T11:42:53.531Z,44.60
2019-03-11T11:45:23.852Z,44.40
2019-03-11T11:47:52.673Z,39.80
2019-03-11T11:50:23.511Z,40.60
2019-03-11T11:52:53.555Z,41.30
2019-03-11T11:55:23.201Z,40.20
2019-03-11T11:57:52.338Z,40.80
2019-03-11T12:00:25.213Z,43.00
2019-03-11T12:02:54.126Z,43.30
2019-03-11T12:05:23.080Z,43.30
2019-03-11T12:07:52.057Z,45.00
2019-03-11T12:10:31.389Z,44.50
2019-03-11T12:13:00.296Z,44.70
2019-03-11T12:15:29.141Z,45.60
2019-03-11T12:17:57.977Z,47.40
2019-03-11T12:20:28.675Z,49.00
2019-03-11T12:22:57.526Z,53.60
2019-03-11T12:25:26.360Z,58.10
2019-03-11T12:27:57.919Z,58.90
2019-03-11T12:30:33.660Z,58.10
2019-03-11T12:33:02.453Z,56.90
2019-03-11T12:35:31.507Z,54.70
2019-03-11T12:38:00.385Z,50.80
2019-03-11T12:40:29.227Z,51.70
2019-03-11T12:42:58.079Z,49.80
2019-03-11T12:45:27.380Z,49.30
2019-03-11T12:47:56.259Z,49.70
2019-03-11T12:50:32.677Z,50.60
2019-03-11T12:53:01.555Z,50.30
2019-03-11T12:55:30.420Z,49.60
2019-03-11T12:57:59.267Z,52.00
2019-03-11T13:00:28.130Z,52.60
2019-03-11T13:02:57.010Z,52.20
2019-03-11T13:05:25.876Z,53.50
2019-03-11T13:07:54.722Z,53.50
2019-03-11T13:10:27.476Z,53.50
2019-03-11T13:12:56.466Z,52.80
2019-03-11T13:15:25.308Z,55.90
2019-03-11T13:17:54.110Z,53.80
2019-03-11T13:20:25.894Z,53.90
2019-03-11T13:22:54.753Z,53.80
2019-03-11T13:25:23.581Z,55.10
2019-03-11T13:27:52.455Z,55.00
2019-03-11T13:30:21.277Z,57.40
2019-03-11T13:32:50.124Z,57.00
2019-03-11T13:35:18.950Z,57.70
2019-03-11T13:37:47.782Z,55.90
2019-03-11T13:40:17.271Z,58.40
2019-03-11T13:42:46.130Z,57.40
2019-03-11T13:45:20.766Z,58.90
2019-03-11T13:47:49.576Z,60.00
2019-03-11T13:50:19.136Z,60.00
2019-03-11T13:52:48.093Z,61.90
2019-03-11T13:55:17.776Z,59.30
2019-03-11T13:57:46.700Z,59.80
2019-03-11T14:00:17.988Z,65.30
2019-03-11T14:02:46.840Z,65.10
2019-03-11T14:05:15.643Z,64.00
2019-03-11T14:07:44.520Z,60.60
2019-03-11T14:10:14.487Z,59.20
2019-03-11T14:12:43.289Z,60.20
2019-03-11T14:15:21.652Z,58.60
2019-03-11T14:17:50.508Z,60.50
2019-03-11T14:20:19.370Z,58.20
2019-03-11T14:22:48.244Z,58.60
2019-03-11T14:25:17.175Z,60.40
2019-03-11T14:27:45.983Z,60.60
2019-03-11T14:30:18.747Z,60.90
2019-03-11T14:32:47.651Z,61.60
2019-03-11T14:35:16.485Z,62.20
2019-03-11T14:37:45.348Z,61.20
2019-03-11T14:40:18.061Z,64.70
2019-03-11T14:42:46.989Z,66.80
2019-03-11T14:45:23.711Z,70.10
2019-03-11T14:47:52.519Z,72.60
2019-03-11T14:50:21.388Z,71.60
2019-03-11T14:52:50.216Z,71.70
2019-03-11T14:55:19.190Z,73.60
2019-03-11T14:57:48.008Z,75.90
2019-03-11T15:00:19.823Z,78.60
2019-03-11T15:02:48.956Z,75.90
2019-03-11T15:05:18.879Z,75.50
2019-03-11T15:07:48.052Z,77.60
2019-03-11T15:10:18.391Z,75.80
2019-03-11T15:12:47.823Z,75.20
2019-03-11T15:15:18.969Z,77.60
2019-03-11T15:17:47.915Z,76.40
2019-03-11T15:20:16.820Z,74.80
2019-03-11T15:22:45.720Z,74.10
2019-03-11T15:25:15.530Z,72.40
2019-03-11T15:27:44.512Z,70.90
2019-03-11T15:30:16.524Z,71.00
2019-03-11T15:32:45.386Z,69.10
2019-03-11T15:35:14.510Z,68.20
2019-03-11T15:37:43.384Z,68.40
2019-03-11T15:40:16.720Z,71.90
2019-03-11T15:42:45.609Z,73.90
2019-03-11T15:45:18.329Z,74.70
2019-03-11T15:47:47.293Z,75.30
2019-03-11T15:50:27.645Z,76.50
2019-03-11T15:52:56.533Z,76.90
2019-03-11T15:55:25.360Z,77.70
2019-03-11T15:57:54.321Z,75.70
2019-03-11T16:00:24.229Z,75.40
2019-03-11T16:02:53.235Z,75.50
2019-03-11T16:05:26.724Z,75.90
2019-03-11T16:07:56.062Z,74.60
2019-03-11T16:10:24.970Z,78.00
2019-03-11T16:12:53.839Z,77.60
2019-03-11T16:15:22.648Z,77.70
2019-03-11T16:17:51.490Z,78.30
2019-03-11T16:20:22.713Z,78.10
2019-03-11T16:22:51.545Z,79.40
2019-03-11T16:25:20.499Z,79.10
2019-03-11T16:27:49.421Z,80.20
2019-03-11T16:30:28.401Z,81.60
2019-03-11T16:32:59.969Z,80.50
2019-03-11T16:35:28.925Z,81.40
2019-03-11T16:37:57.781Z,82.00
2019-03-11T16:40:26.877Z,81.50
2019-03-11T16:42:55.689Z,82.90
2019-03-11T16:45:24.944Z,82.20
2019-03-11T16:47:53.789Z,82.50
2019-03-11T16:50:26.960Z,84.40
2019-03-11T16:52:55.856Z,82.40
2019-03-11T16:55:38.518Z,82.30
2019-03-11T16:58:07.406Z,82.30
2019-03-11T17:00:37.785Z,83.50
2019-03-11T17:03:07.168Z,83.10
2019-03-11T17:05:36.062Z,83.80
2019-03-11T17:08:05.096Z,83.10
2019-03-11T17:10:34.085Z,85.00
2019-03-11T17:13:02.885Z,84.20
2019-03-11T17:15:31.718Z,83.60
2019-03-11T17:18:00.540Z,83.40
2019-03-11T17:20:29.476Z,84.90
2019-03-11T17:22:58.418Z,84.40
2019-03-11T17:25:27.248Z,84.80
2019-03-11T17:27:56.158Z,85.40
2019-03-11T17:30:26.914Z,86.70
2019-03-11T17:32:55.849Z,87.30
2019-03-11T17:35:24.902Z,89.10
2019-03-11T17:37:53.898Z,88.80
2019-03-11T17:40:28.177Z,89.30
2019-03-11T17:42:57.121Z,90.10
2019-03-11T17:45:25.907Z,89.00
2019-03-11T17:47:54.933Z,89.50
2019-03-11T17:50:24.547Z,90.10
2019-03-11T17:52:53.622Z,89.90
2019-03-11T17:55:22.536Z,89.00
2019-03-11T17:57:51.430Z,89.70
2019-03-11T18:00:26.128Z,88.80
2019-03-11T18:02:55.295Z,89.00
2019-03-11T18:05:24.326Z,89.20
2019-03-11T18:07:53.266Z,90.10
2019-03-11T18:10:22.137Z,89.00
2019-03-11T18:12:51.049Z,89.20
2019-03-11T18:15:20.049Z,90.10
2019-03-11T18:17:49.007Z,90.20
2019-03-11T18:20:20.340Z,90.40
2019-03-11T18:22:49.686Z,90.40
2019-03-11T18:25:19.955Z,90.90
2019-03-11T18:27:48.965Z,91.40
2019-03-11T18:30:31.932Z,91.30
2019-03-11T18:33:00.778Z,91.80
2019-03-11T18:35:29.730Z,92.00
2019-03-11T18:38:04.048Z,92.70
2019-03-11T18:40:29.318Z,93.20
2019-03-11T18:42:58.158Z,94.10
2019-03-11T18:45:27.147Z,94.40
2019-03-11T18:47:56.155Z,94.30
2019-03-11T18:50:25.504Z,95.10
2019-03-11T18:52:54.503Z,95.10
2019-03-11T18:55:23.502Z,95.30
2019-03-11T18:57:52.349Z,95.30
2019-03-11T19:00:22.447Z,95.50
2019-03-11T19:02:51.567Z,95.50
2019-03-11T19:05:21.711Z,96.40
2019-03-11T19:07:50.511Z,96.30
2019-03-11T19:10:19.569Z,96.30
2019-03-11T19:12:50.156Z,96.70
2019-03-11T19:15:26.124Z,97.00
2019-03-11T19:17:54.932Z,97.10
2019-03-11T19:20:24.745Z,97.10
2019-03-11T19:22:53.667Z,96.60
2019-03-11T19:25:22.764Z,97.30
2019-03-11T19:27:51.590Z,97.50
2019-03-11T19:30:22.704Z,97.40
2019-03-11T19:32:51.820Z,97.40
2019-03-11T19:35:20.888Z,97.20
2019-03-11T19:37:49.922Z,97.30
2019-03-11T19:40:21.053Z,97.20
2019-03-11T19:42:50.247Z,97.30
2019-03-11T19:45:19.294Z,97.20
2019-03-11T19:47:48.130Z,97.40
2019-03-11T19:50:18.801Z,97.40
2019-03-11T19:52:57.897Z,97.10
2019-03-11T19:55:18.645Z,97.20
2019-03-11T19:57:47.600Z,97.20
2019-03-11T20:00:18.862Z,96.50
2019-03-11T20:02:47.937Z,96.50
2019-03-11T20:05:19.583Z,96.50
2019-03-11T20:07:48.392Z,96.30
2019-03-11T20:10:17.698Z,96.30
2019-03-11T20:12:46.750Z,96.80
2019-03-11T20:15:16.036Z,97.10
2019-03-11T20:17:45.049Z,96.90
2019-03-11T20:20:16.412Z,97.00
2019-03-11T20:22:45.360Z,96.70
2019-03-11T20:25:23.133Z,96.70
2019-03-11T20:27:52.118Z,96.80
2019-03-11T20:30:22.792Z,96.70
2019-03-11T20:32:51.719Z,97.40
2019-03-11T20:35:20.635Z,97.30
2019-03-11T20:37:49.490Z,97.00
2019-03-11T20:40:18.464Z,97.30
2019-03-11T20:42:47.449Z,97.30
2019-03-11T20:45:19.167Z,97.80
2019-03-11T20:47:48.105Z,97.60
2019-03-11T20:50:18.260Z,97.70
2019-03-11T20:52:47.391Z,97.50
2019-03-11T20:55:17.617Z,97.90
2019-03-11T20:57:46.543Z,98.00
2019-03-11T21:00:22.660Z,98.20
2019-03-11T21:02:51.766Z,98.30
2019-03-11T21:05:31.141Z,97.90
2019-03-11T21:07:59.988Z,98.10
2019-03-11T21:10:28.849Z,98.40
2019-03-11T21:12:57.714Z,98.50
2019-03-11T21:15:26.516Z,98.50
2019-03-11T21:17:55.371Z,98.70
2019-03-11T21:20:24.248Z,98.80
2019-03-11T21:22:53.322Z,98.90
2019-03-11T21:25:22.599Z,98.70
2019-03-11T21:27:52.467Z,98.70
2019-03-11T21:30:22.803Z,98.80
2019-03-11T21:32:51.673Z,98.60
2019-03-11T21:35:20.779Z,98.60
2019-03-11T21:37:50.325Z,98.80
2019-03-11T21:40:22.792Z,99.10
2019-03-11T21:42:51.784Z,99.40
2019-03-11T21:45:32.906Z,99.10
2019-03-11T21:47:51.412Z,99.10
2019-03-11T21:50:24.803Z,99.40
2019-03-11T21:52:53.956Z,99.20
2019-03-11T21:55:23.071Z,99.40
2019-03-11T21:57:52.031Z,99.00
2019-03-11T22:00:33.682Z,99.10
2019-03-11T22:02:54.864Z,99.10
2019-03-11T22:05:23.739Z,98.80
2019-03-11T22:07:52.556Z,99.00
2019-03-11T22:10:21.817Z,99.00
2019-03-11T22:12:50.716Z,98.90
2019-03-11T22:15:24.003Z,98.90
2019-03-11T22:17:52.872Z,98.70
2019-03-11T22:20:21.719Z,98.80
2019-03-11T22:22:50.879Z,99.10
2019-03-11T22:25:20.713Z,99.30
2019-03-11T22:27:49.756Z,99.30
2019-03-11T22:30:22.529Z,99.50
2019-03-11T22:32:51.453Z,99.60
2019-03-11T22:35:20.255Z,99.90
2019-03-11T22:37:49.137Z,99.90
2019-03-11T22:40:18.865Z,99.90
2019-03-11T22:42:47.750Z,99.90
2019-03-11T22:45:20.036Z,99.90
2019-03-11T22:47:49.850Z,99.90
2019-03-11T22:50:18.657Z,99.90
2019-03-11T22:52:47.778Z,99.90
2019-03-11T22:55:17.232Z,99.90
2019-03-11T22:57:46.074Z,99.90
2019-03-11T23:00:17.959Z,99.90
2019-03-11T23:02:46.798Z,99.90
2019-03-11T23:05:15.662Z,99.90
2019-03-11T23:07:44.518Z,99.90
2019-03-11T23:10:13.367Z,99.90
2019-03-11T23:12:42.219Z,99.90
2019-03-11T23:15:11.019Z,99.90
2019-03-11T23:17:39.910Z,99.90
2019-03-11T23:20:09.549Z,99.90
2019-03-11T23:22:38.359Z,99.90
2019-03-11T23:25:08.619Z,99.90
2019-03-11T23:27:37.499Z,99.90
2019-03-11T23:30:11.985Z,99.90
2019-03-11T23:32:40.827Z,99.90
2019-03-11T23:35:09.775Z,99.90
2019-03-11T23:37:38.598Z,99.90
2019-03-11T23:40:09.492Z,99.90
2019-03-11T23:42:38.366Z,99.90
2019-03-11T23:45:11.217Z,99.90
2019-03-11T23:47:40.035Z,99.90
2019-03-11T23:50:15.533Z,99.90
2019-03-11T23:52:44.343Z,99.90
2019-03-11T23:55:13.554Z,99.90
2019-03-11T23:57:42.960Z,99.90
